createdAt,value
2022-10-07T00:00:28.905Z,99.99
2022-10-07T00:01:29.392Z,99.99
2022-10-07T00:02:29.031Z,99.99
2022-10-07T00:03:28.898Z,99.99
2022-10-07T00:04:28.867Z,99.99
2022-10-07T00:05:28.860Z,99.99
2022-10-07T00:06:28.912Z,99.99
2022-10-07T00:07:28.916Z,99.99
2022-10-07T00:08:28.833Z,99.99
2022-10-07T00:09:28.801Z,99.99
2022-10-07T00:10:28.798Z,99.99
2022-10-07T00:11:28.848Z,99.99
2022-10-07T00:12:28.787Z,99.99
2022-10-07T00:13:28.768Z,99.99
2022-10-07T00:14:28.750Z,99.99
2022-10-07T00:15:28.749Z,99.99
2022-10-07T00:16:28.827Z,99.99
2022-10-07T00:17:28.729Z,99.99
2022-10-07T00:18:28.697Z,99.99
2022-10-07T00:19:28.709Z,99.99
2022-10-07T00:20:28.687Z,99.99
2022-10-07T00:21:28.727Z,99.99
2022-10-07T00:22:28.666Z,99.99
2022-10-07T00:23:28.655Z,99.99
2022-10-07T00:24:28.655Z,99.99
2022-10-07T00:25:28.625Z,99.99
2022-10-07T00:26:28.665Z,99.99
2022-10-07T00:27:28.595Z,99.99
2022-10-07T00:28:28.626Z,99.99
2022-10-07T00:29:28.574Z,99.99
2022-10-07T00:30:28.633Z,99.99
2022-10-07T00:31:28.601Z,99.99
2022-10-07T00:32:28.654Z,99.99
2022-10-07T00:33:28.557Z,99.99
2022-10-07T00:34:28.522Z,99.99
2022-10-07T00:35:28.496Z,99.99
2022-10-07T00:36:28.529Z,99.99
2022-10-07T00:37:28.469Z,99.99
2022-10-07T00:38:28.388Z,99.99
2022-10-07T00:39:28.361Z,99.99
2022-10-07T00:40:28.375Z,99.99
2022-10-07T00:41:28.394Z,99.99
2022-10-07T00:42:28.453Z,99.99
2022-10-07T00:43:28.315Z,99.99
2022-10-07T00:44:28.327Z,99.99
2022-10-07T00:45:28.402Z,99.99
2022-10-07T00:46:28.335Z,99.99
2022-10-07T00:47:28.289Z,99.99
2022-10-07T00:48:28.290Z,99.99
2022-10-07T00:49:28.268Z,99.99
2022-10-07T00:50:28.265Z,99.99
2022-10-07T00:51:28.279Z,99.99
2022-10-07T00:52:28.225Z,99.99
2022-10-07T00:53:28.222Z,99.99
2022-10-07T00:54:28.224Z,99.99
2022-10-07T00:55:28.181Z,99.99
2022-10-07T00:56:28.217Z,99.99
2022-10-07T00:57:28.153Z,99.99
2022-10-07T00:58:28.142Z,99.99
2022-10-07T00:59:28.133Z,99.99
2022-10-07T01:00:28.140Z,99.99
2022-10-07T01:01:28.248Z,99.99
2022-10-07T01:02:28.153Z,99.99
2022-10-07T01:03:28.102Z,99.99
2022-10-07T01:04:28.089Z,99.99
2022-10-07T01:05:28.083Z,99.99
2022-10-07T01:06:28.124Z,99.99
2022-10-07T01:07:28.065Z,99.99
2022-10-07T01:08:28.050Z,99.99
2022-10-07T01:09:28.020Z,99.99
2022-10-07T01:10:28.034Z,99.99
2022-10-07T01:11:28.051Z,99.99
2022-10-07T01:12:28.007Z,99.99
2022-10-07T01:13:27.986Z,99.99
2022-10-07T01:14:27.990Z,99.99
2022-10-07T01:15:27.970Z,99.99
2022-10-07T01:16:28.057Z,99.99
2022-10-07T01:17:27.955Z,99.99
2022-10-07T01:18:27.931Z,99.99
2022-10-07T01:19:27.927Z,99.99
2022-10-07T01:20:27.910Z,99.99
2022-10-07T01:21:27.940Z,99.99
2022-10-07T01:22:27.892Z,99.99
2022-10-07T01:23:27.874Z,99.99
2022-10-07T01:24:27.870Z,99.99
2022-10-07T01:25:27.844Z,99.99
2022-10-07T01:26:27.874Z,99.99
2022-10-07T01:27:27.818Z,99.99
2022-10-07T01:28:27.840Z,99.99
2022-10-07T01:29:27.806Z,99.99
2022-10-07T01:30:27.812Z,99.99
2022-10-07T01:31:27.824Z,99.99
2022-10-07T01:32:27.768Z,99.99
2022-10-07T01:33:27.774Z,99.99
2022-10-07T01:34:27.748Z,99.99
2022-10-07T01:35:27.781Z,99.99
2022-10-07T01:36:27.776Z,99.99
2022-10-07T01:37:27.728Z,99.99
2022-10-07T01:38:27.708Z,99.99
2022-10-07T01:39:27.686Z,99.99
2022-10-07T01:40:27.696Z,99.99
2022-10-07T01:41:27.702Z,99.99
2022-10-07T01:42:27.667Z,99.99
2022-10-07T01:43:27.653Z,99.99
2022-10-07T01:44:27.645Z,99.99
2022-10-07T01:45:27.624Z,99.99
2022-10-07T01:46:27.793Z,99.99
2022-10-07T01:47:27.607Z,99.99
2022-10-07T01:48:27.586Z,99.99
2022-10-07T01:49:27.591Z,99.99
2022-10-07T01:50:27.576Z,99.99
2022-10-07T01:51:27.599Z,99.99
2022-10-07T01:52:27.648Z,99.99
2022-10-07T01:53:27.545Z,99.99
2022-10-07T01:54:27.529Z,99.99
2022-10-07T01:55:27.503Z,99.99
2022-10-07T01:56:27.534Z,99.99
2022-10-07T01:57:27.478Z,99.99
2022-10-07T01:58:27.497Z,99.99
2022-10-07T01:59:27.469Z,99.99
2022-10-07T02:00:27.478Z,99.99
2022-10-07T02:01:27.547Z,99.99
2022-10-07T02:02:27.569Z,99.99
2022-10-07T02:03:27.491Z,99.99
2022-10-07T02:04:27.410Z,99.99
2022-10-07T02:05:27.386Z,99.99
2022-10-07T02:06:27.459Z,99.99
2022-10-07T02:07:27.383Z,99.99
2022-10-07T02:08:27.381Z,99.99
2022-10-07T02:09:27.347Z,99.99
2022-10-07T02:10:27.356Z,99.99
2022-10-07T02:11:27.400Z,99.99
2022-10-07T02:12:27.407Z,99.99
2022-10-07T02:13:27.335Z,99.99
2022-10-07T02:14:27.320Z,99.99
2022-10-07T02:15:27.285Z,99.99
2022-10-07T02:16:27.410Z,99.99
2022-10-07T02:17:27.268Z,99.99
2022-10-07T02:18:27.366Z,99.99
2022-10-07T02:19:27.255Z,99.99
2022-10-07T02:20:27.235Z,99.99
2022-10-07T02:21:27.264Z,99.99
2022-10-07T02:22:27.308Z,99.99
2022-10-07T02:23:27.215Z,99.99
2022-10-07T02:24:27.173Z,99.99
2022-10-07T02:25:27.169Z,99.99
2022-10-07T02:26:27.203Z,99.99
2022-10-07T02:27:27.141Z,99.99
2022-10-07T02:28:27.185Z,99.99
2022-10-07T02:29:27.127Z,99.99
2022-10-07T02:30:27.130Z,99.99
2022-10-07T02:31:27.205Z,99.99
2022-10-07T02:32:27.092Z,99.99
2022-10-07T02:33:27.097Z,99.99
2022-10-07T02:34:27.068Z,99.99
2022-10-07T02:35:27.068Z,99.99
2022-10-07T02:36:27.101Z,99.99
2022-10-07T02:37:27.158Z,99.99
2022-10-07T02:38:27.028Z,99.99
2022-10-07T02:39:27.013Z,99.99
2022-10-07T02:40:27.006Z,99.99
2022-10-07T02:41:27.046Z,99.99
2022-10-07T02:42:26.991Z,99.99
2022-10-07T02:43:26.965Z,99.99
2022-10-07T02:44:26.987Z,99.99
2022-10-07T02:45:27.154Z,99.99
2022-10-07T02:46:27.026Z,99.99
2022-10-07T02:47:26.909Z,99.99
2022-10-07T02:48:26.904Z,99.99
2022-10-07T02:49:26.909Z,99.99
2022-10-07T02:50:26.889Z,99.99
2022-10-07T02:51:26.924Z,99.99
2022-10-07T02:52:26.850Z,99.99
2022-10-07T02:53:26.853Z,99.99
2022-10-07T02:54:26.829Z,99.99
2022-10-07T02:55:26.822Z,99.99
2022-10-07T02:56:26.857Z,99.99
2022-10-07T02:57:26.810Z,99.99
2022-10-07T02:58:26.811Z,99.99
2022-10-07T02:59:26.804Z,99.99
2022-10-07T03:00:26.762Z,99.99
2022-10-07T03:01:26.835Z,99.99
2022-10-07T03:02:26.748Z,99.99
2022-10-07T03:03:26.823Z,99.99
2022-10-07T03:04:26.726Z,99.99
2022-10-07T03:05:26.711Z,99.99
2022-10-07T03:06:26.746Z,99.99
2022-10-07T03:07:26.688Z,99.99
2022-10-07T03:08:26.689Z,99.99
2022-10-07T03:09:26.674Z,99.99
2022-10-07T03:10:26.673Z,99.99
2022-10-07T03:11:26.707Z,99.99
2022-10-07T03:12:26.629Z,99.99
2022-10-07T03:13:26.637Z,99.99
2022-10-07T03:14:26.608Z,99.99
2022-10-07T03:15:26.621Z,99.99
2022-10-07T03:16:26.716Z,99.99
2022-10-07T03:17:26.593Z,99.99
2022-10-07T03:18:26.944Z,99.99
2022-10-07T03:19:26.550Z,99.99
2022-10-07T03:20:26.551Z,99.99
2022-10-07T03:21:26.588Z,99.99
2022-10-07T03:22:26.527Z,99.99
2022-10-07T03:23:26.508Z,99.99
2022-10-07T03:24:26.525Z,99.99
2022-10-07T03:25:26.481Z,99.99
2022-10-07T03:26:26.511Z,99.99
2022-10-07T03:27:26.461Z,99.99
2022-10-07T03:28:26.502Z,99.99
2022-10-07T03:29:26.437Z,99.99
2022-10-07T03:30:26.416Z,99.99
2022-10-07T03:31:26.554Z,99.99
2022-10-07T03:32:26.415Z,99.99
2022-10-07T03:33:26.419Z,99.99
2022-10-07T03:34:26.386Z,99.99
2022-10-07T03:35:26.380Z,99.99
2022-10-07T03:36:26.413Z,99.99
2022-10-07T03:37:26.346Z,99.99
2022-10-07T03:38:26.355Z,99.99
2022-10-07T03:39:26.337Z,99.99
2022-10-07T03:40:26.331Z,99.99
2022-10-07T03:41:26.344Z,99.99
2022-10-07T03:42:26.285Z,99.99
2022-10-07T03:43:26.320Z,99.99
2022-10-07T03:44:26.279Z,99.99
2022-10-07T03:45:26.275Z,99.99
2022-10-07T03:46:26.386Z,99.99
2022-10-07T03:47:26.260Z,99.99
2022-10-07T03:48:26.222Z,99.99
2022-10-07T03:49:26.223Z,99.99
2022-10-07T03:50:26.205Z,99.99
2022-10-07T03:51:26.246Z,99.99
2022-10-07T03:52:26.187Z,99.99
2022-10-07T03:53:26.177Z,99.99
2022-10-07T03:54:26.169Z,99.99
2022-10-07T03:55:26.137Z,99.99
2022-10-07T03:56:26.172Z,99.99
2022-10-07T03:57:26.119Z,99.99
2022-10-07T03:58:26.102Z,99.99
2022-10-07T03:59:26.112Z,99.99
2022-10-07T04:00:26.088Z,99.99
2022-10-07T04:01:26.187Z,99.99
2022-10-07T04:02:26.075Z,99.99
2022-10-07T04:03:26.101Z,99.99
2022-10-07T04:04:26.048Z,99.99
2022-10-07T04:05:26.029Z,99.99
2022-10-07T04:06:26.066Z,99.99
2022-10-07T04:07:26.018Z,99.99
2022-10-07T04:08:26.015Z,99.99
2022-10-07T04:09:25.992Z,99.99
2022-10-07T04:10:25.970Z,99.99
2022-10-07T04:11:26.034Z,99.99
2022-10-07T04:12:25.976Z,99.99
2022-10-07T04:13:25.959Z,99.99
2022-10-07T04:14:25.934Z,99.99
2022-10-07T04:15:25.948Z,99.99
2022-10-07T04:16:26.013Z,99.99
2022-10-07T04:17:25.920Z,99.99
2022-10-07T04:18:25.905Z,99.99
2022-10-07T04:19:25.872Z,99.99
2022-10-07T04:20:25.878Z,99.99
2022-10-07T04:21:25.900Z,99.99
2022-10-07T04:22:25.847Z,99.99
2022-10-07T04:23:25.827Z,99.99
2022-10-07T04:24:25.806Z,99.99
2022-10-07T04:25:25.800Z,99.99
2022-10-07T04:26:25.823Z,99.99
2022-10-07T04:27:50.225Z,99.99
2022-10-07T04:28:26.826Z,99.99
2022-10-07T04:29:25.765Z,99.99
2022-10-07T04:30:25.744Z,99.99
2022-10-07T04:31:25.861Z,99.99
2022-10-07T04:32:25.735Z,99.99
2022-10-07T04:33:25.715Z,99.99
2022-10-07T04:34:25.723Z,99.99
2022-10-07T04:35:25.690Z,99.99
2022-10-07T04:36:25.727Z,99.99
2022-10-07T04:37:25.680Z,99.99
2022-10-07T04:38:28.356Z,99.99
2022-10-07T04:39:42.721Z,99.99
2022-10-07T04:40:26.623Z,99.99
2022-10-07T04:41:25.664Z,99.99
2022-10-07T04:42:25.607Z,99.99
2022-10-07T04:43:25.629Z,99.99
2022-10-07T04:44:25.592Z,99.99
2022-10-07T04:45:25.613Z,99.99
2022-10-07T04:46:25.708Z,99.99
2022-10-07T04:47:25.588Z,99.99
2022-10-07T04:48:25.545Z,99.99
2022-10-07T04:49:25.543Z,99.99
2022-10-07T04:50:25.545Z,99.99
2022-10-07T04:51:25.564Z,99.99
2022-10-07T04:52:25.501Z,99.99
2022-10-07T04:53:25.508Z,99.99
2022-10-07T04:54:25.490Z,99.99
2022-10-07T04:55:25.451Z,99.99
2022-10-07T04:56:25.490Z,99.99
2022-10-07T04:57:25.434Z,99.99
2022-10-07T04:58:25.479Z,99.99
2022-10-07T04:59:28.032Z,99.99
2022-10-07T05:00:25.411Z,99.99
2022-10-07T05:01:25.505Z,99.99
2022-10-07T05:02:25.454Z,99.99
2022-10-07T05:03:25.382Z,99.99
2022-10-07T05:04:25.378Z,99.99
2022-10-07T05:05:25.357Z,99.99
2022-10-07T05:06:25.348Z,99.99
2022-10-07T05:07:25.386Z,99.99
2022-10-07T05:08:25.336Z,99.99
2022-10-07T05:09:25.313Z,99.99
2022-10-07T05:10:25.286Z,99.99
2022-10-07T05:11:25.295Z,99.99
2022-10-07T05:12:25.317Z,99.99
2022-10-07T05:13:25.274Z,99.99
2022-10-07T05:14:25.261Z,99.99
2022-10-07T05:15:25.248Z,99.99
2022-10-07T05:16:25.278Z,99.99
2022-10-07T05:17:25.273Z,99.99
2022-10-07T05:18:25.208Z,99.99
2022-10-07T05:19:25.216Z,99.99
2022-10-07T05:20:25.187Z,99.99
2022-10-07T05:21:25.164Z,99.99
2022-10-07T05:22:25.216Z,99.99
2022-10-07T05:23:28.404Z,99.99
2022-10-07T05:24:25.142Z,99.99
2022-10-07T05:25:25.105Z,99.99
2022-10-07T05:26:25.105Z,99.99
2022-10-07T05:27:25.142Z,99.99
2022-10-07T05:28:25.116Z,99.99
2022-10-07T05:29:25.098Z,99.99
2022-10-07T05:30:25.085Z,99.99
2022-10-07T05:31:25.113Z,99.99
2022-10-07T05:32:25.089Z,99.99
2022-10-07T05:33:25.031Z,99.99
2022-10-07T05:34:25.028Z,99.99
2022-10-07T05:35:25.029Z,99.99
2022-10-07T05:36:25.017Z,99.99
2022-10-07T05:37:25.063Z,99.99
2022-10-07T05:38:24.999Z,99.99
2022-10-07T05:39:24.973Z,99.99
2022-10-07T05:40:24.956Z,99.99
2022-10-07T05:41:24.951Z,99.99
2022-10-07T05:42:24.983Z,99.99
2022-10-07T05:43:24.973Z,99.99
2022-10-07T05:44:24.917Z,99.99
2022-10-07T05:45:24.921Z,99.99
2022-10-07T05:46:24.892Z,99.99
2022-10-07T05:47:24.925Z,99.99
2022-10-07T05:48:24.884Z,99.99
2022-10-07T05:49:24.861Z,99.99
2022-10-07T05:50:24.854Z,99.99
2022-10-07T05:51:24.837Z,99.99
2022-10-07T05:52:24.876Z,99.99
2022-10-07T05:53:24.819Z,99.99
2022-10-07T05:54:24.795Z,99.99
2022-10-07T05:55:24.768Z,99.99
2022-10-07T05:56:24.766Z,99.99
2022-10-07T05:57:24.790Z,99.99
2022-10-07T05:58:24.739Z,99.99
2022-10-07T05:59:24.760Z,99.99
2022-10-07T06:00:24.728Z,99.99
2022-10-07T06:01:24.728Z,99.99
2022-10-07T06:02:24.814Z,99.99
2022-10-07T06:03:24.735Z,99.99
2022-10-07T06:04:24.687Z,99.99
2022-10-07T06:05:24.703Z,99.99
2022-10-07T06:06:24.697Z,99.99
2022-10-07T06:07:29.109Z,99.99
2022-10-07T06:08:24.639Z,99.99
2022-10-07T06:09:24.644Z,99.99
2022-10-07T06:10:24.606Z,99.99
2022-10-07T06:11:24.616Z,99.99
2022-10-07T06:12:24.642Z,99.99
2022-10-07T06:13:24.591Z,99.99
2022-10-07T06:14:24.568Z,99.99
2022-10-07T06:15:24.549Z,99.99
2022-10-07T06:16:24.584Z,99.99
2022-10-07T06:17:24.582Z,99.99
2022-10-07T06:18:24.547Z,99.99
2022-10-07T06:19:24.515Z,99.99
2022-10-07T06:20:24.520Z,99.99
2022-10-07T06:21:24.488Z,99.99
2022-10-07T06:22:24.534Z,99.99
2022-10-07T06:23:24.467Z,99.99
2022-10-07T06:24:24.451Z,99.99
2022-10-07T06:25:24.445Z,99.99
2022-10-07T06:26:24.411Z,99.99
2022-10-07T06:27:24.475Z,99.99
2022-10-07T06:28:24.505Z,99.99
2022-10-07T06:29:24.421Z,99.99
2022-10-07T06:30:24.430Z,99.99
2022-10-07T06:31:24.399Z,99.99
2022-10-07T06:32:24.423Z,99.99
2022-10-07T06:33:24.350Z,99.99
2022-10-07T06:34:24.351Z,99.99
2022-10-07T06:35:24.334Z,99.99
2022-10-07T06:36:24.324Z,99.99
2022-10-07T06:37:24.385Z,99.99
2022-10-07T06:38:24.282Z,99.99
2022-10-07T06:39:24.284Z,99.99
2022-10-07T06:40:24.305Z,99.99
2022-10-07T06:41:24.267Z,99.99
2022-10-07T06:42:24.316Z,99.99
2022-10-07T06:43:24.251Z,99.99
2022-10-07T06:44:24.233Z,99.99
2022-10-07T06:45:24.230Z,99.99
2022-10-07T06:46:24.270Z,99.99
2022-10-07T06:47:24.242Z,99.99
2022-10-07T06:48:24.170Z,99.99
2022-10-07T06:49:24.169Z,99.99
2022-10-07T06:50:24.176Z,99.99
2022-10-07T06:51:24.153Z,99.99
2022-10-07T06:52:24.188Z,99.99
2022-10-07T06:53:24.114Z,99.99
2022-10-07T06:54:24.119Z,99.99
2022-10-07T06:55:24.093Z,99.99
2022-10-07T06:56:24.085Z,99.99
2022-10-07T06:57:44.823Z,99.99
2022-10-07T06:58:25.071Z,99.99
2022-10-07T06:59:24.067Z,99.99
2022-10-07T07:00:24.048Z,99.99
2022-10-07T07:01:24.068Z,99.99
2022-10-07T07:02:24.133Z,99.99
2022-10-07T07:03:24.019Z,99.99
2022-10-07T07:04:24.028Z,99.99
2022-10-07T07:05:23.991Z,99.99
2022-10-07T07:06:24.021Z,99.99
2022-10-07T07:07:23.998Z,99.99
2022-10-07T07:08:23.983Z,99.99
2022-10-07T07:09:23.947Z,99.99
2022-10-07T07:10:23.934Z,99.99
2022-10-07T07:11:23.934Z,97.29
2022-10-07T07:12:23.962Z,97.04
2022-10-07T07:13:23.935Z,93.79
2022-10-07T07:14:23.892Z,93.44
2022-10-07T07:15:23.895Z,95.02
2022-10-07T07:16:23.911Z,94.57
2022-10-07T07:17:23.910Z,94.83
2022-10-07T07:18:23.834Z,90.26
2022-10-07T07:19:23.832Z,88.75
2022-10-07T07:20:23.838Z,89.45
2022-10-07T07:21:23.810Z,84.42
2022-10-07T07:22:23.853Z,88.84
2022-10-07T07:23:23.809Z,92.61
2022-10-07T07:24:23.768Z,86.94
2022-10-07T07:25:23.756Z,86.39
2022-10-07T07:26:23.746Z,88.33
2022-10-07T07:27:23.782Z,89.66
2022-10-07T07:28:23.768Z,89.92
2022-10-07T07:29:23.731Z,87.12
2022-10-07T07:30:23.705Z,82.53
2022-10-07T07:31:23.814Z,77.09
2022-10-07T07:32:23.735Z,80.73
2022-10-07T07:33:23.674Z,83.56
2022-10-07T07:34:23.676Z,81.20
2022-10-07T07:35:23.672Z,83.04
2022-10-07T07:36:23.651Z,79.77
2022-10-07T07:37:23.684Z,78.92
2022-10-07T07:38:25.548Z,72.64
2022-10-07T07:39:23.619Z,75.24
2022-10-07T07:40:23.587Z,76.93
2022-10-07T07:41:23.590Z,79.54
2022-10-07T07:42:23.625Z,76.72
2022-10-07T07:43:23.605Z,77.45
2022-10-07T07:44:23.568Z,77.11
2022-10-07T07:45:23.553Z,72.94
2022-10-07T07:46:23.569Z,71.70
2022-10-07T07:47:23.506Z,77.58
2022-10-07T07:48:23.544Z,73.18
2022-10-07T07:49:23.482Z,72.00
2022-10-07T07:50:23.492Z,70.09
2022-10-07T07:51:23.470Z,69.56
2022-10-07T07:52:23.476Z,68.65
2022-10-07T07:53:23.513Z,69.35
2022-10-07T07:54:23.424Z,70.70
2022-10-07T07:55:23.404Z,68.65
2022-10-07T07:56:23.420Z,68.48
2022-10-07T07:57:23.439Z,67.47
2022-10-07T07:58:23.423Z,67.74
2022-10-07T07:59:23.378Z,71.90
2022-10-07T08:00:23.353Z,65.30
2022-10-07T08:01:23.437Z,66.81
2022-10-07T08:02:23.433Z,70.73
2022-10-07T08:03:23.379Z,65.67
2022-10-07T08:04:23.309Z,65.54
2022-10-07T08:05:24.275Z,65.64
2022-10-07T08:06:23.309Z,66.17
2022-10-07T08:07:23.306Z,67.34
2022-10-07T08:08:23.355Z,68.41
2022-10-07T08:09:23.285Z,67.44
2022-10-07T08:10:23.327Z,65.67
2022-10-07T08:11:23.253Z,66.01
2022-10-07T08:12:23.233Z,64.24
2022-10-07T08:13:23.264Z,66.34
2022-10-07T08:14:23.237Z,67.78
2022-10-07T08:15:23.234Z,65.33
2022-10-07T08:16:23.204Z,66.17
2022-10-07T08:17:23.201Z,66.44
2022-10-07T08:18:23.233Z,63.37
2022-10-07T08:19:23.146Z,63.87
2022-10-07T08:20:23.259Z,62.67
2022-10-07T08:21:23.124Z,64.34
2022-10-07T08:22:23.134Z,65.21
2022-10-07T08:23:23.142Z,62.67
2022-10-07T08:24:23.095Z,63.50
2022-10-07T08:25:23.079Z,67.18
2022-10-07T08:26:23.078Z,63.64
2022-10-07T08:27:23.069Z,61.84
2022-10-07T08:28:23.152Z,63.75
2022-10-07T08:29:23.053Z,61.47
2022-10-07T08:30:23.057Z,61.67
2022-10-07T08:31:23.112Z,62.73
2022-10-07T08:32:23.010Z,63.53
2022-10-07T08:33:23.060Z,64.48
2022-10-07T08:34:22.994Z,62.34
2022-10-07T08:35:22.963Z,60.38
2022-10-07T08:36:22.996Z,59.74
2022-10-07T08:37:22.980Z,59.94
2022-10-07T08:38:22.992Z,61.36
2022-10-07T08:39:22.943Z,61.72
2022-10-07T08:40:22.905Z,63.10
2022-10-07T08:41:22.908Z,62.40
2022-10-07T08:42:22.898Z,63.75
2022-10-07T08:43:22.959Z,61.77
2022-10-07T08:44:22.911Z,63.95
2022-10-07T08:45:22.866Z,61.88
2022-10-07T08:46:22.917Z,60.15
2022-10-07T08:47:22.843Z,58.65
2022-10-07T08:48:22.908Z,58.48
2022-10-07T08:49:22.812Z,60.85
2022-10-07T08:50:22.844Z,58.35
2022-10-07T08:51:22.784Z,58.78
2022-10-07T08:52:22.783Z,59.68
2022-10-07T08:53:22.798Z,58.78
2022-10-07T08:54:22.754Z,60.49
2022-10-07T08:55:22.764Z,58.00
2022-10-07T08:56:22.756Z,57.09
2022-10-07T08:57:22.738Z,57.89
2022-10-07T08:58:22.778Z,57.46
2022-10-07T08:59:22.719Z,57.05
2022-10-07T09:00:22.696Z,59.59
2022-10-07T09:01:22.741Z,59.91
2022-10-07T09:02:22.714Z,56.29
2022-10-07T09:03:25.140Z,55.36
2022-10-07T09:04:22.675Z,57.50
2022-10-07T09:05:22.663Z,55.38
2022-10-07T09:06:22.629Z,54.86
2022-10-07T09:07:22.624Z,53.11
2022-10-07T09:08:22.664Z,53.88
2022-10-07T09:09:22.584Z,51.50
2022-10-07T09:10:22.619Z,52.49
2022-10-07T09:11:22.585Z,51.27
2022-10-07T09:12:22.573Z,56.65
2022-10-07T09:13:22.614Z,53.36
2022-10-07T09:14:22.554Z,54.57
2022-10-07T09:15:22.532Z,54.41
2022-10-07T09:16:22.504Z,57.64
2022-10-07T09:17:22.504Z,57.84
2022-10-07T09:18:22.549Z,55.94
2022-10-07T09:19:22.504Z,55.97
2022-10-07T09:20:22.488Z,56.96
2022-10-07T09:21:22.461Z,57.84
2022-10-07T09:22:22.445Z,56.11
2022-10-07T09:23:22.462Z,54.34
2022-10-07T09:24:22.432Z,56.14
2022-10-07T09:25:22.402Z,55.87
2022-10-07T09:26:22.419Z,54.85
2022-10-07T09:27:22.402Z,57.78
2022-10-07T09:28:22.517Z,56.67
2022-10-07T09:29:22.427Z,56.67
2022-10-07T09:30:22.383Z,58.48
2022-10-07T09:31:22.409Z,58.61
2022-10-07T09:32:22.367Z,60.15
2022-10-07T09:33:22.397Z,56.74
2022-10-07T09:34:22.351Z,60.22
2022-10-07T09:35:22.326Z,58.82
2022-10-07T09:36:22.299Z,58.85
2022-10-07T09:37:22.320Z,56.46
2022-10-07T09:38:22.339Z,56.37
2022-10-07T09:39:22.265Z,53.59
2022-10-07T09:40:22.254Z,57.79
2022-10-07T09:41:22.237Z,56.37
2022-10-07T09:42:22.285Z,54.74
2022-10-07T09:43:22.206Z,54.99
2022-10-07T09:44:22.225Z,53.81
2022-10-07T09:45:22.215Z,55.81
2022-10-07T09:46:22.226Z,53.42
2022-10-07T09:47:22.226Z,54.27
2022-10-07T09:48:22.152Z,55.21
2022-10-07T09:49:24.399Z,54.86
2022-10-07T09:50:22.162Z,54.90
2022-10-07T09:51:22.112Z,56.27
2022-10-07T09:52:22.123Z,57.50
2022-10-07T09:53:22.145Z,58.70
2022-10-07T09:54:22.106Z,58.26
2022-10-07T09:55:22.097Z,58.40
2022-10-07T09:56:22.080Z,57.33
2022-10-07T09:57:22.066Z,57.90
2022-10-07T09:58:22.117Z,57.65
2022-10-07T09:59:22.020Z,56.15
2022-10-07T10:00:22.037Z,58.82
2022-10-07T10:01:22.036Z,56.59
2022-10-07T10:02:22.167Z,55.04
2022-10-07T10:03:22.104Z,56.21
2022-10-07T10:04:21.979Z,53.61
2022-10-07T10:05:21.978Z,53.61
2022-10-07T10:06:22.011Z,54.37
2022-10-07T10:07:21.976Z,57.37
2022-10-07T10:08:22.001Z,55.57
2022-10-07T10:09:21.931Z,55.99
2022-10-07T10:10:21.913Z,54.09
2022-10-07T10:11:21.900Z,55.19
2022-10-07T10:12:21.906Z,55.99
2022-10-07T10:13:21.917Z,53.14
2022-10-07T10:14:21.883Z,56.57
2022-10-07T10:15:21.865Z,55.49
2022-10-07T10:16:21.878Z,56.46
2022-10-07T10:17:21.831Z,56.59
2022-10-07T10:18:21.883Z,57.72
2022-10-07T10:19:21.806Z,57.35
2022-10-07T10:20:21.787Z,59.08
2022-10-07T10:21:21.773Z,56.85
2022-10-07T10:22:21.777Z,57.95
2022-10-07T10:23:21.820Z,56.52
2022-10-07T10:24:21.784Z,59.02
2022-10-07T10:25:21.743Z,57.17
2022-10-07T10:26:21.753Z,57.01
2022-10-07T10:27:21.731Z,55.51
2022-10-07T10:28:21.880Z,54.59
2022-10-07T10:29:21.713Z,55.06
2022-10-07T10:30:21.689Z,52.79
2022-10-07T10:31:21.740Z,51.87
2022-10-07T10:32:21.669Z,53.66
2022-10-07T10:33:21.725Z,53.64
2022-10-07T10:34:21.656Z,53.27
2022-10-07T10:35:21.622Z,54.86
2022-10-07T10:36:21.627Z,53.71
2022-10-07T10:37:21.607Z,53.34
2022-10-07T10:38:21.656Z,52.81
2022-10-07T10:39:21.573Z,51.87
2022-10-07T10:40:21.607Z,49.93
2022-10-07T10:41:21.596Z,51.47
2022-10-07T10:42:21.596Z,52.49
2022-10-07T10:43:21.607Z,52.14
2022-10-07T10:44:21.561Z,52.14
2022-10-07T10:45:21.524Z,52.14
2022-10-07T10:46:21.539Z,51.60
2022-10-07T10:47:21.508Z,49.96
2022-10-07T10:48:21.545Z,51.60
2022-10-07T10:49:21.478Z,46.84
2022-10-07T10:50:21.467Z,48.88
2022-10-07T10:51:21.449Z,46.74
2022-10-07T10:52:21.469Z,46.59
2022-10-07T10:53:21.617Z,47.96
2022-10-07T10:54:21.444Z,45.97
2022-10-07T10:55:21.420Z,46.81
2022-10-07T10:56:21.420Z,49.74
2022-10-07T10:57:21.393Z,46.82
2022-10-07T10:58:21.424Z,46.25
2022-10-07T10:59:21.386Z,47.68
2022-10-07T11:00:21.372Z,47.73
2022-10-07T11:01:21.546Z,51.07
2022-10-07T11:02:21.458Z,49.15
2022-10-07T11:03:21.423Z,47.19
2022-10-07T11:04:21.323Z,47.31
2022-10-07T11:05:21.332Z,47.50
2022-10-07T11:06:21.300Z,51.28
2022-10-07T11:07:21.300Z,47.98
2022-10-07T11:08:24.176Z,47.88
2022-10-07T11:09:22.258Z,47.66
2022-10-07T11:10:21.269Z,47.80
2022-10-07T11:11:21.238Z,47.75
2022-10-07T11:12:21.219Z,47.28
2022-10-07T11:13:21.273Z,49.52
2022-10-07T11:14:21.216Z,45.34
2022-10-07T11:15:21.199Z,45.45
2022-10-07T11:16:21.244Z,46.00
2022-10-07T11:17:21.182Z,46.07
2022-10-07T11:18:21.231Z,47.53
2022-10-07T11:19:21.151Z,51.65
2022-10-07T11:20:21.140Z,48.38
2022-10-07T11:21:21.132Z,45.14
2022-10-07T11:22:21.132Z,46.45
2022-10-07T11:23:21.150Z,48.21
2022-10-07T11:24:21.099Z,45.68
2022-10-07T11:25:21.099Z,45.57
2022-10-07T11:26:21.067Z,46.70
2022-10-07T11:27:21.092Z,45.25
2022-10-07T11:28:21.162Z,43.75
2022-10-07T11:29:21.072Z,46.55
2022-10-07T11:30:21.037Z,45.78
2022-10-07T11:31:21.042Z,47.88
2022-10-07T11:32:21.019Z,47.46
2022-10-07T11:33:21.062Z,47.75
2022-10-07T11:34:20.994Z,47.21
2022-10-07T11:35:21.003Z,48.23
2022-10-07T11:36:21.013Z,47.15
2022-10-07T11:37:20.982Z,45.23
2022-10-07T11:38:20.988Z,45.84
2022-10-07T11:39:20.936Z,42.82
2022-10-07T11:40:20.940Z,46.42
2022-10-07T11:41:20.918Z,45.60
2022-10-07T11:42:20.895Z,45.79
2022-10-07T11:43:20.931Z,49.78
2022-10-07T11:44:20.873Z,47.30
2022-10-07T11:45:20.874Z,50.16
2022-10-07T11:46:20.912Z,46.83
2022-10-07T11:47:20.853Z,46.12
2022-10-07T11:48:20.865Z,47.09
2022-10-07T11:49:20.826Z,45.56
2022-10-07T11:50:20.817Z,44.46
2022-10-07T11:51:20.800Z,45.73
2022-10-07T11:52:20.796Z,46.94
2022-10-07T11:53:20.841Z,44.32
2022-10-07T11:54:20.764Z,45.93
2022-10-07T11:55:20.822Z,44.02
2022-10-07T11:56:20.752Z,44.24
2022-10-07T11:57:20.758Z,43.53
2022-10-07T11:58:20.760Z,46.12
2022-10-07T11:59:20.746Z,45.90
2022-10-07T12:00:20.725Z,46.39
2022-10-07T12:01:20.702Z,47.09
2022-10-07T12:02:20.737Z,45.15
2022-10-07T12:03:20.811Z,47.85
2022-10-07T12:04:20.648Z,46.47
2022-10-07T12:05:20.645Z,47.61
2022-10-07T12:06:20.638Z,46.55
2022-10-07T12:07:20.649Z,45.07
2022-10-07T12:08:20.667Z,43.63
2022-10-07T12:09:20.618Z,45.63
2022-10-07T12:10:20.601Z,46.51
2022-10-07T12:11:20.589Z,47.58
2022-10-07T12:12:20.589Z,46.61
2022-10-07T12:13:20.613Z,45.32
2022-10-07T12:14:20.567Z,47.53
2022-10-07T12:15:20.549Z,43.73
2022-10-07T12:16:20.608Z,45.43
2022-10-07T12:17:20.521Z,46.15
2022-10-07T12:18:20.534Z,47.58
2022-10-07T12:19:23.668Z,45.08
2022-10-07T12:20:20.473Z,48.07
2022-10-07T12:21:20.479Z,48.17
2022-10-07T12:22:20.487Z,48.14
2022-10-07T12:23:20.541Z,47.65
2022-10-07T12:24:20.476Z,46.81
2022-10-07T12:25:20.444Z,45.12
2022-10-07T12:26:20.427Z,47.28
2022-10-07T12:27:20.426Z,48.94
2022-10-07T12:28:20.463Z,49.21
2022-10-07T12:29:20.403Z,48.05
2022-10-07T12:30:20.381Z,47.13
2022-10-07T12:31:20.396Z,49.79
2022-10-07T12:32:20.356Z,47.88
2022-10-07T12:33:20.393Z,47.53
2022-10-07T12:34:20.335Z,48.02
2022-10-07T12:35:20.325Z,46.71
2022-10-07T12:36:20.309Z,48.67
2022-10-07T12:37:20.327Z,47.46
2022-10-07T12:38:20.356Z,46.64
2022-10-07T12:39:20.279Z,50.20
2022-10-07T12:40:20.269Z,50.68
2022-10-07T12:41:20.288Z,48.57
2022-10-07T12:42:20.255Z,48.49
2022-10-07T12:43:20.398Z,48.71
2022-10-07T12:44:20.247Z,49.49
2022-10-07T12:45:20.216Z,50.50
2022-10-07T12:46:20.205Z,50.40
2022-10-07T12:47:20.190Z,51.84
2022-10-07T12:48:20.238Z,51.54
2022-10-07T12:49:20.156Z,48.82
2022-10-07T12:50:20.156Z,48.90
2022-10-07T12:51:20.153Z,50.16
2022-10-07T12:52:20.132Z,46.97